sensor_id;sensor_type;location;lat;lon;timestamp;temperature;humidity
4840;DHT22;2434;48.486;7.964;2022-07-09T00:01:13;17.80;46.10
4840;DHT22;2434;48.486;7.964;2022-07-09T00:03:42;18.00;45.10
4840;DHT22;2434;48.486;7.964;2022-07-09T00:06:10;18.10;44.50
4840;DHT22;2434;48.486;7.964;2022-07-09T00:08:40;18.20;44.20
4840;DHT22;2434;48.486;7.964;2022-07-09T00:11:08;18.20;44.40
4840;DHT22;2434;48.486;7.964;2022-07-09T00:13:36;18.20;44.50
4840;DHT22;2434;48.486;7.964;2022-07-09T00:16:05;18.20;44.10
4840;DHT22;2434;48.486;7.964;2022-07-09T00:18:33;18.20;44.70
4840;DHT22;2434;48.486;7.964;2022-07-09T00:21:03;18.20;44.10
4840;DHT22;2434;48.486;7.964;2022-07-09T00:23:31;18.10;44.20
4840;DHT22;2434;48.486;7.964;2022-07-09T00:26:02;18.10;44.40
4840;DHT22;2434;48.486;7.964;2022-07-09T00:28:30;18.10;44.10
4840;DHT22;2434;48.486;7.964;2022-07-09T00:30:59;18.10;44.20
4840;DHT22;2434;48.486;7.964;2022-07-09T00:33:27;18.10;44.10
4840;DHT22;2434;48.486;7.964;2022-07-09T00:35:55;18.00;44.20
4840;DHT22;2434;48.486;7.964;2022-07-09T00:38:23;18.00;44.30
4840;DHT22;2434;48.486;7.964;2022-07-09T00:40:52;17.90;45.10
4840;DHT22;2434;48.486;7.964;2022-07-09T00:43:22;17.80;45.30
4840;DHT22;2434;48.486;7.964;2022-07-09T00:45:50;17.70;45.30
4840;DHT22;2434;48.486;7.964;2022-07-09T00:48:19;17.70;45.90
4840;DHT22;2434;48.486;7.964;2022-07-09T00:50:49;17.60;46.00
4840;DHT22;2434;48.486;7.964;2022-07-09T00:53:23;17.60;46.00
4840;DHT22;2434;48.486;7.964;2022-07-09T00:55:53;17.50;45.70
4840;DHT22;2434;48.486;7.964;2022-07-09T00:58:23;17.50;46.20
4840;DHT22;2434;48.486;7.964;2022-07-09T01:00:52;17.40;45.90
4840;DHT22;2434;48.486;7.964;2022-07-09T01:03:20;17.40;46.30
4840;DHT22;2434;48.486;7.964;2022-07-09T01:05:49;17.40;46.00
4840;DHT22;2434;48.486;7.964;2022-07-09T01:08:17;17.30;46.20
4840;DHT22;2434;48.486;7.964;2022-07-09T01:10:48;17.20;46.30
4840;DHT22;2434;48.486;7.964;2022-07-09T01:13:18;17.20;46.10
4840;DHT22;2434;48.486;7.964;2022-07-09T01:15:48;17.10;46.70
4840;DHT22;2434;48.486;7.964;2022-07-09T01:18:16;17.10;47.10
4840;DHT22;2434;48.486;7.964;2022-07-09T01:20:46;17.10;48.20
4840;DHT22;2434;48.486;7.964;2022-07-09T01:23:15;17.00;47.70
4840;DHT22;2434;48.486;7.964;2022-07-09T01:25:46;16.90;48.20
4840;DHT22;2434;48.486;7.964;2022-07-09T01:28:14;16.90;48.60
4840;DHT22;2434;48.486;7.964;2022-07-09T01:30:43;16.80;49.00
4840;DHT22;2434;48.486;7.964;2022-07-09T01:33:11;16.80;49.00
4840;DHT22;2434;48.486;7.964;2022-07-09T01:35:40;16.80;49.30
4840;DHT22;2434;48.486;7.964;2022-07-09T01:38:10;16.70;49.00
4840;DHT22;2434;48.486;7.964;2022-07-09T01:40:38;16.70;49.20
4840;DHT22;2434;48.486;7.964;2022-07-09T01:43:06;16.80;49.50
4840;DHT22;2434;48.486;7.964;2022-07-09T01:45:34;16.80;49.60
4840;DHT22;2434;48.486;7.964;2022-07-09T01:48:03;16.80;49.20
4840;DHT22;2434;48.486;7.964;2022-07-09T01:50:31;16.70;49.70
4840;DHT22;2434;48.486;7.964;2022-07-09T01:53:00;16.70;50.10
4840;DHT22;2434;48.486;7.964;2022-07-09T01:55:29;16.80;49.40
4840;DHT22;2434;48.486;7.964;2022-07-09T01:57:58;16.80;49.50
4840;DHT22;2434;48.486;7.964;2022-07-09T02:00:27;16.70;49.20
4840;DHT22;2434;48.486;7.964;2022-07-09T02:02:56;16.80;49.50
4840;DHT22;2434;48.486;7.964;2022-07-09T02:05:24;16.70;49.50
4840;DHT22;2434;48.486;7.964;2022-07-09T02:07:53;16.70;49.90
4840;DHT22;2434;48.486;7.964;2022-07-09T02:10:21;16.60;49.50
4840;DHT22;2434;48.486;7.964;2022-07-09T02:12:51;16.70;49.40
4840;DHT22;2434;48.486;7.964;2022-07-09T02:15:19;16.70;49.50
4840;DHT22;2434;48.486;7.964;2022-07-09T02:17:48;16.60;49.60
4840;DHT22;2434;48.486;7.964;2022-07-09T02:20:17;16.60;49.40
4840;DHT22;2434;48.486;7.964;2022-07-09T02:22:45;16.60;49.90
4840;DHT22;2434;48.486;7.964;2022-07-09T02:25:13;16.60;49.20
4840;DHT22;2434;48.486;7.964;2022-07-09T02:27:41;16.60;49.50
4840;DHT22;2434;48.486;7.964;2022-07-09T02:30:11;16.40;49.70
4840;DHT22;2434;48.486;7.964;2022-07-09T02:32:41;16.40;50.00
4840;DHT22;2434;48.486;7.964;2022-07-09T02:35:09;16.40;50.20
4840;DHT22;2434;48.486;7.964;2022-07-09T02:37:37;16.40;50.00
4840;DHT22;2434;48.486;7.964;2022-07-09T02:40:07;16.40;50.00
4840;DHT22;2434;48.486;7.964;2022-07-09T02:42:35;16.40;50.60
4840;DHT22;2434;48.486;7.964;2022-07-09T02:45:06;16.30;50.90
4840;DHT22;2434;48.486;7.964;2022-07-09T02:47:35;16.30;50.70
4840;DHT22;2434;48.486;7.964;2022-07-09T02:50:04;16.30;50.90
4840;DHT22;2434;48.486;7.964;2022-07-09T02:52:33;16.20;50.50
4840;DHT22;2434;48.486;7.964;2022-07-09T02:55:01;16.30;51.20
4840;DHT22;2434;48.486;7.964;2022-07-09T02:57:29;16.20;51.10
4840;DHT22;2434;48.486;7.964;2022-07-09T02:59:57;16.20;50.50
4840;DHT22;2434;48.486;7.964;2022-07-09T03:02:26;16.30;51.00
4840;DHT22;2434;48.486;7.964;2022-07-09T03:04:56;16.20;51.70
4840;DHT22;2434;48.486;7.964;2022-07-09T03:07:24;14.60;58.20
4840;DHT22;2434;48.486;7.964;2022-07-09T03:09:52;15.00;57.10
4840;DHT22;2434;48.486;7.964;2022-07-09T03:12:21;15.30;55.70
4840;DHT22;2434;48.486;7.964;2022-07-09T03:14:49;15.50;54.10
4840;DHT22;2434;48.486;7.964;2022-07-09T03:17:17;15.70;53.20
4840;DHT22;2434;48.486;7.964;2022-07-09T03:19:45;15.80;52.60
4840;DHT22;2434;48.486;7.964;2022-07-09T03:22:15;15.90;52.30
4840;DHT22;2434;48.486;7.964;2022-07-09T03:24:44;15.90;52.00
4840;DHT22;2434;48.486;7.964;2022-07-09T03:27:12;15.90;52.20
4840;DHT22;2434;48.486;7.964;2022-07-09T03:29:40;15.90;51.90
4840;DHT22;2434;48.486;7.964;2022-07-09T03:32:08;15.90;52.20
4840;DHT22;2434;48.486;7.964;2022-07-09T03:34:37;15.90;52.30
4840;DHT22;2434;48.486;7.964;2022-07-09T03:37:05;15.80;52.50
4840;DHT22;2434;48.486;7.964;2022-07-09T03:39:35;15.80;52.80
4840;DHT22;2434;48.486;7.964;2022-07-09T03:42:03;15.80;52.90
4840;DHT22;2434;48.486;7.964;2022-07-09T03:44:33;15.80;52.70
4840;DHT22;2434;48.486;7.964;2022-07-09T03:47:01;15.80;53.50
4840;DHT22;2434;48.486;7.964;2022-07-09T03:49:30;15.80;53.70
4840;DHT22;2434;48.486;7.964;2022-07-09T03:51:58;15.80;53.90
4840;DHT22;2434;48.486;7.964;2022-07-09T03:54:45;15.70;53.00
4840;DHT22;2434;48.486;7.964;2022-07-09T03:57:14;15.80;52.90
4840;DHT22;2434;48.486;7.964;2022-07-09T03:59:42;15.80;53.20
4840;DHT22;2434;48.486;7.964;2022-07-09T04:02:10;15.80;52.90
4840;DHT22;2434;48.486;7.964;2022-07-09T04:04:40;15.80;52.90
4840;DHT22;2434;48.486;7.964;2022-07-09T04:07:10;15.80;53.10
4840;DHT22;2434;48.486;7.964;2022-07-09T04:09:38;15.70;53.20
4840;DHT22;2434;48.486;7.964;2022-07-09T04:12:09;15.70;53.30
4840;DHT22;2434;48.486;7.964;2022-07-09T04:14:37;15.70;53.60
4840;DHT22;2434;48.486;7.964;2022-07-09T04:17:06;15.60;53.80
4840;DHT22;2434;48.486;7.964;2022-07-09T04:19:34;15.60;54.10
4840;DHT22;2434;48.486;7.964;2022-07-09T04:22:03;15.60;54.70
4840;DHT22;2434;48.486;7.964;2022-07-09T04:24:31;15.60;54.50
4840;DHT22;2434;48.486;7.964;2022-07-09T04:27:00;15.50;54.70
4840;DHT22;2434;48.486;7.964;2022-07-09T04:29:30;15.60;54.70
4840;DHT22;2434;48.486;7.964;2022-07-09T04:31:58;15.50;55.00
4840;DHT22;2434;48.486;7.964;2022-07-09T04:34:26;15.50;55.20
4840;DHT22;2434;48.486;7.964;2022-07-09T04:36:54;15.50;54.80
4840;DHT22;2434;48.486;7.964;2022-07-09T04:39:23;15.50;55.20
4840;DHT22;2434;48.486;7.964;2022-07-09T04:41:52;15.40;55.40
4840;DHT22;2434;48.486;7.964;2022-07-09T04:44:20;15.40;55.90
4840;DHT22;2434;48.486;7.964;2022-07-09T04:46:50;15.40;56.00
4840;DHT22;2434;48.486;7.964;2022-07-09T04:49:18;15.30;56.60
4840;DHT22;2434;48.486;7.964;2022-07-09T04:51:47;15.30;57.50
4840;DHT22;2434;48.486;7.964;2022-07-09T04:54:16;15.30;57.50
4840;DHT22;2434;48.486;7.964;2022-07-09T04:56:44;15.30;57.50
4840;DHT22;2434;48.486;7.964;2022-07-09T04:59:13;15.30;57.30
4840;DHT22;2434;48.486;7.964;2022-07-09T05:01:41;15.30;57.10
4840;DHT22;2434;48.486;7.964;2022-07-09T05:04:11;15.30;57.40
4840;DHT22;2434;48.486;7.964;2022-07-09T05:06:39;15.40;57.30
4840;DHT22;2434;48.486;7.964;2022-07-09T05:09:08;15.40;57.10
4840;DHT22;2434;48.486;7.964;2022-07-09T05:11:36;15.40;57.10
4840;DHT22;2434;48.486;7.964;2022-07-09T05:14:04;15.50;57.00
4840;DHT22;2434;48.486;7.964;2022-07-09T05:16:33;15.50;57.10
4840;DHT22;2434;48.486;7.964;2022-07-09T05:19:02;15.60;56.60
4840;DHT22;2434;48.486;7.964;2022-07-09T05:21:32;15.60;56.00
4840;DHT22;2434;48.486;7.964;2022-07-09T05:24:00;15.70;55.80
4840;DHT22;2434;48.486;7.964;2022-07-09T05:26:29;15.70;56.00
4840;DHT22;2434;48.486;7.964;2022-07-09T05:28:57;15.70;55.90
4840;DHT22;2434;48.486;7.964;2022-07-09T05:31:25;15.80;57.10
4840;DHT22;2434;48.486;7.964;2022-07-09T05:34:02;15.80;57.00
4840;DHT22;2434;48.486;7.964;2022-07-09T05:36:31;15.80;56.90
4840;DHT22;2434;48.486;7.964;2022-07-09T05:39:00;15.80;56.70
4840;DHT22;2434;48.486;7.964;2022-07-09T05:41:28;15.90;56.70
4840;DHT22;2434;48.486;7.964;2022-07-09T05:43:57;15.80;58.80
4840;DHT22;2434;48.486;7.964;2022-07-09T05:46:25;15.70;59.40
4840;DHT22;2434;48.486;7.964;2022-07-09T05:48:53;15.90;57.60
4840;DHT22;2434;48.486;7.964;2022-07-09T05:51:21;16.00;58.00
4840;DHT22;2434;48.486;7.964;2022-07-09T05:53:51;16.10;58.50
4840;DHT22;2434;48.486;7.964;2022-07-09T05:56:20;16.10;58.10
4840;DHT22;2434;48.486;7.964;2022-07-09T05:58:48;16.20;58.50
4840;DHT22;2434;48.486;7.964;2022-07-09T06:01:16;16.20;58.80
4840;DHT22;2434;48.486;7.964;2022-07-09T06:03:52;16.30;58.40
4840;DHT22;2434;48.486;7.964;2022-07-09T06:06:21;16.30;59.10
4840;DHT22;2434;48.486;7.964;2022-07-09T06:08:50;16.30;59.00
4840;DHT22;2434;48.486;7.964;2022-07-09T06:11:19;16.30;58.90
4840;DHT22;2434;48.486;7.964;2022-07-09T06:13:47;16.30;58.10
4840;DHT22;2434;48.486;7.964;2022-07-09T06:16:15;16.30;59.40
4840;DHT22;2434;48.486;7.964;2022-07-09T06:18:44;16.30;59.20
4840;DHT22;2434;48.486;7.964;2022-07-09T06:21:12;16.30;58.40
4840;DHT22;2434;48.486;7.964;2022-07-09T06:23:40;16.50;57.00
4840;DHT22;2434;48.486;7.964;2022-07-09T06:26:10;16.50;57.90
4840;DHT22;2434;48.486;7.964;2022-07-09T06:28:38;16.50;57.10
4840;DHT22;2434;48.486;7.964;2022-07-09T06:31:06;16.60;57.30
4840;DHT22;2434;48.486;7.964;2022-07-09T06:33:34;16.70;59.10
4840;DHT22;2434;48.486;7.964;2022-07-09T06:36:03;16.80;56.70
4840;DHT22;2434;48.486;7.964;2022-07-09T06:38:32;16.90;56.00
4840;DHT22;2434;48.486;7.964;2022-07-09T06:41:21;17.00;54.70
4840;DHT22;2434;48.486;7.964;2022-07-09T06:43:50;17.00;54.30
4840;DHT22;2434;48.486;7.964;2022-07-09T06:46:18;17.10;54.90
4840;DHT22;2434;48.486;7.964;2022-07-09T06:48:46;17.10;54.60
4840;DHT22;2434;48.486;7.964;2022-07-09T06:51:14;17.20;53.20
4840;DHT22;2434;48.486;7.964;2022-07-09T06:53:43;17.40;55.20
4840;DHT22;2434;48.486;7.964;2022-07-09T06:56:11;17.40;53.20
4840;DHT22;2434;48.486;7.964;2022-07-09T06:58:40;17.40;51.80
4840;DHT22;2434;48.486;7.964;2022-07-09T07:01:09;17.40;52.00
4840;DHT22;2434;48.486;7.964;2022-07-09T07:03:37;17.50;52.80
4840;DHT22;2434;48.486;7.964;2022-07-09T07:06:05;17.70;49.50
4840;DHT22;2434;48.486;7.964;2022-07-09T07:08:33;17.90;47.80
4840;DHT22;2434;48.486;7.964;2022-07-09T07:11:03;17.90;48.10
4840;DHT22;2434;48.486;7.964;2022-07-09T07:13:31;17.90;47.40
4840;DHT22;2434;48.486;7.964;2022-07-09T07:16:01;17.90;47.90
4840;DHT22;2434;48.486;7.964;2022-07-09T07:18:29;18.00;46.90
4840;DHT22;2434;48.486;7.964;2022-07-09T07:20:58;18.10;47.40
4840;DHT22;2434;48.486;7.964;2022-07-09T07:23:26;18.10;48.60
4840;DHT22;2434;48.486;7.964;2022-07-09T07:25:58;18.30;47.10
4840;DHT22;2434;48.486;7.964;2022-07-09T07:28:27;18.30;47.50
4840;DHT22;2434;48.486;7.964;2022-07-09T07:30:56;18.40;46.30
4840;DHT22;2434;48.486;7.964;2022-07-09T07:33:26;18.60;45.50
4840;DHT22;2434;48.486;7.964;2022-07-09T07:35:54;18.60;44.40
4840;DHT22;2434;48.486;7.964;2022-07-09T07:38:22;18.60;45.00
4840;DHT22;2434;48.486;7.964;2022-07-09T07:40:54;18.80;43.60
4840;DHT22;2434;48.486;7.964;2022-07-09T07:43:22;18.90;43.00
4840;DHT22;2434;48.486;7.964;2022-07-09T07:45:51;19.10;42.60
4840;DHT22;2434;48.486;7.964;2022-07-09T07:48:19;19.10;42.50
4840;DHT22;2434;48.486;7.964;2022-07-09T07:50:49;19.00;42.30
4840;DHT22;2434;48.486;7.964;2022-07-09T07:53:17;18.90;43.70
4840;DHT22;2434;48.486;7.964;2022-07-09T07:55:46;18.90;44.30
4840;DHT22;2434;48.486;7.964;2022-07-09T07:58:14;19.00;45.10
4840;DHT22;2434;48.486;7.964;2022-07-09T08:00:43;19.40;44.10
4840;DHT22;2434;48.486;7.964;2022-07-09T08:03:11;19.60;42.10
4840;DHT22;2434;48.486;7.964;2022-07-09T08:05:40;19.70;41.80
4840;DHT22;2434;48.486;7.964;2022-07-09T08:08:10;19.70;41.20
4840;DHT22;2434;48.486;7.964;2022-07-09T08:10:38;19.60;41.50
4840;DHT22;2434;48.486;7.964;2022-07-09T08:13:09;19.50;44.70
4840;DHT22;2434;48.486;7.964;2022-07-09T08:15:38;19.70;44.30
4840;DHT22;2434;48.486;7.964;2022-07-09T08:18:07;19.90;41.60
4840;DHT22;2434;48.486;7.964;2022-07-09T08:20:39;20.00;40.90
4840;DHT22;2434;48.486;7.964;2022-07-09T08:23:09;20.10;43.20
4840;DHT22;2434;48.486;7.964;2022-07-09T08:25:38;20.10;40.00
4840;DHT22;2434;48.486;7.964;2022-07-09T08:28:06;20.10;40.20
4840;DHT22;2434;48.486;7.964;2022-07-09T08:30:35;20.10;41.50
4840;DHT22;2434;48.486;7.964;2022-07-09T08:33:04;20.30;42.80
4840;DHT22;2434;48.486;7.964;2022-07-09T08:35:39;20.30;43.80
4840;DHT22;2434;48.486;7.964;2022-07-09T08:38:09;20.40;43.00
4840;DHT22;2434;48.486;7.964;2022-07-09T08:40:38;20.40;44.10
4840;DHT22;2434;48.486;7.964;2022-07-09T08:43:09;20.40;42.70
4840;DHT22;2434;48.486;7.964;2022-07-09T08:45:38;20.50;42.00
4840;DHT22;2434;48.486;7.964;2022-07-09T08:48:06;20.50;44.10
4840;DHT22;2434;48.486;7.964;2022-07-09T08:50:35;20.70;41.60
4840;DHT22;2434;48.486;7.964;2022-07-09T08:53:05;20.70;39.90
4840;DHT22;2434;48.486;7.964;2022-07-09T08:55:35;20.80;39.90
4840;DHT22;2434;48.486;7.964;2022-07-09T08:58:05;21.10;39.30
4840;DHT22;2434;48.486;7.964;2022-07-09T09:00:34;21.10;39.20
4840;DHT22;2434;48.486;7.964;2022-07-09T09:03:02;21.00;40.20
4840;DHT22;2434;48.486;7.964;2022-07-09T09:05:30;21.10;38.20
4840;DHT22;2434;48.486;7.964;2022-07-09T09:07:59;21.00;39.90
4840;DHT22;2434;48.486;7.964;2022-07-09T09:10:27;21.30;38.50
4840;DHT22;2434;48.486;7.964;2022-07-09T09:12:58;21.40;38.70
4840;DHT22;2434;48.486;7.964;2022-07-09T09:15:27;21.40;40.30
4840;DHT22;2434;48.486;7.964;2022-07-09T09:17:56;21.50;38.50
4840;DHT22;2434;48.486;7.964;2022-07-09T09:20:25;21.50;39.90
4840;DHT22;2434;48.486;7.964;2022-07-09T09:22:54;21.60;39.20
4840;DHT22;2434;48.486;7.964;2022-07-09T09:25:27;21.70;40.20
4840;DHT22;2434;48.486;7.964;2022-07-09T09:27:57;21.80;38.60
4840;DHT22;2434;48.486;7.964;2022-07-09T09:30:29;21.90;40.40
4840;DHT22;2434;48.486;7.964;2022-07-09T09:32:59;22.00;39.60
4840;DHT22;2434;48.486;7.964;2022-07-09T09:35:29;22.10;40.30
4840;DHT22;2434;48.486;7.964;2022-07-09T09:37:57;22.20;36.90
4840;DHT22;2434;48.486;7.964;2022-07-09T09:40:26;22.20;36.60
4840;DHT22;2434;48.486;7.964;2022-07-09T09:42:54;22.40;34.30
4840;DHT22;2434;48.486;7.964;2022-07-09T09:45:27;22.40;33.70
4840;DHT22;2434;48.486;7.964;2022-07-09T09:47:58;22.30;32.50
4840;DHT22;2434;48.486;7.964;2022-07-09T09:50:28;22.30;34.40
4840;DHT22;2434;48.486;7.964;2022-07-09T09:52:56;22.50;35.10
4840;DHT22;2434;48.486;7.964;2022-07-09T09:55:25;22.60;35.00
4840;DHT22;2434;48.486;7.964;2022-07-09T09:57:54;22.40;33.50
4840;DHT22;2434;48.486;7.964;2022-07-09T10:00:22;22.50;34.00
4840;DHT22;2434;48.486;7.964;2022-07-09T10:02:54;22.80;32.80
4840;DHT22;2434;48.486;7.964;2022-07-09T10:05:23;22.60;32.90
4840;DHT22;2434;48.486;7.964;2022-07-09T10:07:51;22.80;33.50
4840;DHT22;2434;48.486;7.964;2022-07-09T10:10:20;23.00;33.50
4840;DHT22;2434;48.486;7.964;2022-07-09T10:12:48;22.90;34.80
4840;DHT22;2434;48.486;7.964;2022-07-09T10:15:21;23.00;32.00
4840;DHT22;2434;48.486;7.964;2022-07-09T10:17:49;23.10;32.40
4840;DHT22;2434;48.486;7.964;2022-07-09T10:20:29;23.00;32.90
4840;DHT22;2434;48.486;7.964;2022-07-09T10:23:00;23.20;32.50
4840;DHT22;2434;48.486;7.964;2022-07-09T10:25:30;23.20;30.70
4840;DHT22;2434;48.486;7.964;2022-07-09T10:27:59;23.10;31.60
4840;DHT22;2434;48.486;7.964;2022-07-09T10:30:29;23.20;32.70
4840;DHT22;2434;48.486;7.964;2022-07-09T10:33:05;23.30;33.90
4840;DHT22;2434;48.486;7.964;2022-07-09T10:35:42;23.60;32.90
4840;DHT22;2434;48.486;7.964;2022-07-09T10:38:12;23.90;32.30
4840;DHT22;2434;48.486;7.964;2022-07-09T10:40:42;23.80;32.60
4840;DHT22;2434;48.486;7.964;2022-07-09T10:43:11;23.90;34.80
4840;DHT22;2434;48.486;7.964;2022-07-09T10:45:40;24.00;31.00
4840;DHT22;2434;48.486;7.964;2022-07-09T10:48:10;23.90;30.10
4840;DHT22;2434;48.486;7.964;2022-07-09T10:50:42;23.90;30.10
4840;DHT22;2434;48.486;7.964;2022-07-09T10:53:11;24.00;30.20
4840;DHT22;2434;48.486;7.964;2022-07-09T10:55:42;24.00;34.90
4840;DHT22;2434;48.486;7.964;2022-07-09T10:58:18;24.30;29.70
4840;DHT22;2434;48.486;7.964;2022-07-09T11:00:54;24.20;30.50
4840;DHT22;2434;48.486;7.964;2022-07-09T11:03:27;24.00;30.20
4840;DHT22;2434;48.486;7.964;2022-07-09T11:05:57;24.20;32.20
4840;DHT22;2434;48.486;7.964;2022-07-09T11:08:26;24.20;29.40
4840;DHT22;2434;48.486;7.964;2022-07-09T11:10:54;24.30;31.80
4840;DHT22;2434;48.486;7.964;2022-07-09T11:13:25;24.40;31.60
4840;DHT22;2434;48.486;7.964;2022-07-09T11:15:58;24.70;30.00
4840;DHT22;2434;48.486;7.964;2022-07-09T11:18:27;24.70;29.20
4840;DHT22;2434;48.486;7.964;2022-07-09T11:20:57;24.80;28.50
4840;DHT22;2434;48.486;7.964;2022-07-09T11:23:26;24.70;27.80
4840;DHT22;2434;48.486;7.964;2022-07-09T11:25:54;24.90;27.40
4840;DHT22;2434;48.486;7.964;2022-07-09T11:28:24;24.70;27.40
4840;DHT22;2434;48.486;7.964;2022-07-09T11:30:59;24.70;30.00
4840;DHT22;2434;48.486;7.964;2022-07-09T11:33:29;24.80;27.90
4840;DHT22;2434;48.486;7.964;2022-07-09T11:36:19;24.70;29.30
4840;DHT22;2434;48.486;7.964;2022-07-09T11:38:49;25.10;28.80
4840;DHT22;2434;48.486;7.964;2022-07-09T11:41:18;25.10;28.30
4840;DHT22;2434;48.486;7.964;2022-07-09T11:43:47;25.00;27.50
4840;DHT22;2434;48.486;7.964;2022-07-09T11:46:16;25.30;28.10
4840;DHT22;2434;48.486;7.964;2022-07-09T11:48:49;25.20;27.40
4840;DHT22;2434;48.486;7.964;2022-07-09T11:51:28;24.90;28.00
4840;DHT22;2434;48.486;7.964;2022-07-09T11:53:56;24.80;28.60
4840;DHT22;2434;48.486;7.964;2022-07-09T11:56:25;24.80;26.00
4840;DHT22;2434;48.486;7.964;2022-07-09T11:58:53;25.00;27.00
4840;DHT22;2434;48.486;7.964;2022-07-09T12:01:23;25.40;27.20
4840;DHT22;2434;48.486;7.964;2022-07-09T12:03:52;25.40;26.40
4840;DHT22;2434;48.486;7.964;2022-07-09T12:06:20;25.20;26.70
4840;DHT22;2434;48.486;7.964;2022-07-09T12:08:58;25.20;25.90
4840;DHT22;2434;48.486;7.964;2022-07-09T12:11:27;25.30;25.10
4840;DHT22;2434;48.486;7.964;2022-07-09T12:13:56;25.40;25.50
4840;DHT22;2434;48.486;7.964;2022-07-09T12:16:25;25.40;25.30
4840;DHT22;2434;48.486;7.964;2022-07-09T12:18:53;25.40;24.10
4840;DHT22;2434;48.486;7.964;2022-07-09T12:21:24;25.50;24.90
4840;DHT22;2434;48.486;7.964;2022-07-09T12:23:54;25.60;24.90
4840;DHT22;2434;48.486;7.964;2022-07-09T12:26:23;25.40;24.10
4840;DHT22;2434;48.486;7.964;2022-07-09T12:28:51;25.40;24.00
4840;DHT22;2434;48.486;7.964;2022-07-09T12:31:23;25.80;24.50
4840;DHT22;2434;48.486;7.964;2022-07-09T12:33:53;25.60;23.10
4840;DHT22;2434;48.486;7.964;2022-07-09T12:36:21;25.50;24.00
4840;DHT22;2434;48.486;7.964;2022-07-09T12:39:11;25.60;22.90
4840;DHT22;2434;48.486;7.964;2022-07-09T12:41:39;25.40;23.80
4840;DHT22;2434;48.486;7.964;2022-07-09T12:44:08;25.30;23.10
4840;DHT22;2434;48.486;7.964;2022-07-09T12:46:36;25.50;25.20
4840;DHT22;2434;48.486;7.964;2022-07-09T12:49:05;25.40;24.10
4840;DHT22;2434;48.486;7.964;2022-07-09T12:51:33;25.40;22.70
4840;DHT22;2434;48.486;7.964;2022-07-09T12:54:02;25.50;22.90
4840;DHT22;2434;48.486;7.964;2022-07-09T12:56:31;25.40;22.50
4840;DHT22;2434;48.486;7.964;2022-07-09T12:59:20;25.40;23.50
4840;DHT22;2434;48.486;7.964;2022-07-09T13:01:48;25.30;23.10
4840;DHT22;2434;48.486;7.964;2022-07-09T13:04:17;25.40;22.20
4840;DHT22;2434;48.486;7.964;2022-07-09T13:06:45;25.70;23.50
4840;DHT22;2434;48.486;7.964;2022-07-09T13:09:14;25.60;22.60
4840;DHT22;2434;48.486;7.964;2022-07-09T13:11:43;25.50;23.90
4840;DHT22;2434;48.486;7.964;2022-07-09T13:14:12;25.60;23.40
4840;DHT22;2434;48.486;7.964;2022-07-09T13:16:40;25.70;23.10
4840;DHT22;2434;48.486;7.964;2022-07-09T13:19:10;25.90;23.50
4840;DHT22;2434;48.486;7.964;2022-07-09T13:21:38;26.00;22.50
4840;DHT22;2434;48.486;7.964;2022-07-09T13:24:07;25.60;22.10
4840;DHT22;2434;48.486;7.964;2022-07-09T13:26:36;25.60;22.10
4840;DHT22;2434;48.486;7.964;2022-07-09T13:29:05;25.70;25.40
4840;DHT22;2434;48.486;7.964;2022-07-09T13:31:34;25.80;22.20
4840;DHT22;2434;48.486;7.964;2022-07-09T13:34:03;26.20;24.80
4840;DHT22;2434;48.486;7.964;2022-07-09T13:36:31;26.20;24.50
4840;DHT22;2434;48.486;7.964;2022-07-09T13:38:59;26.20;22.60
4840;DHT22;2434;48.486;7.964;2022-07-09T13:41:28;26.10;23.80
4840;DHT22;2434;48.486;7.964;2022-07-09T13:43:56;26.30;25.20
4840;DHT22;2434;48.486;7.964;2022-07-09T13:46:25;26.20;23.30
4840;DHT22;2434;48.486;7.964;2022-07-09T13:48:54;26.30;24.10
4840;DHT22;2434;48.486;7.964;2022-07-09T13:51:22;26.30;24.00
4840;DHT22;2434;48.486;7.964;2022-07-09T13:53:50;26.40;21.60
4840;DHT22;2434;48.486;7.964;2022-07-09T13:56:18;26.20;21.20
4840;DHT22;2434;48.486;7.964;2022-07-09T13:58:47;26.40;22.00
4840;DHT22;2434;48.486;7.964;2022-07-09T14:01:15;26.40;19.90
4840;DHT22;2434;48.486;7.964;2022-07-09T14:03:45;26.30;19.80
4840;DHT22;2434;48.486;7.964;2022-07-09T14:06:13;26.00;20.80
4840;DHT22;2434;48.486;7.964;2022-07-09T14:09:02;26.10;20.60
4840;DHT22;2434;48.486;7.964;2022-07-09T14:11:31;26.20;21.00
4840;DHT22;2434;48.486;7.964;2022-07-09T14:13:59;26.10;22.00
4840;DHT22;2434;48.486;7.964;2022-07-09T14:16:27;26.00;22.60
4840;DHT22;2434;48.486;7.964;2022-07-09T14:18:57;26.00;22.70
4840;DHT22;2434;48.486;7.964;2022-07-09T14:21:26;26.00;23.10
4840;DHT22;2434;48.486;7.964;2022-07-09T14:23:55;25.90;22.50
4840;DHT22;2434;48.486;7.964;2022-07-09T14:26:23;25.90;22.40
4840;DHT22;2434;48.486;7.964;2022-07-09T14:28:51;26.00;24.50
4840;DHT22;2434;48.486;7.964;2022-07-09T14:31:20;26.20;22.70
4840;DHT22;2434;48.486;7.964;2022-07-09T14:33:48;26.10;23.80
4840;DHT22;2434;48.486;7.964;2022-07-09T14:36:18;26.40;24.60
4840;DHT22;2434;48.486;7.964;2022-07-09T14:38:46;26.60;23.00
4840;DHT22;2434;48.486;7.964;2022-07-09T14:41:14;26.60;24.20
4840;DHT22;2434;48.486;7.964;2022-07-09T14:43:42;26.40;22.40
4840;DHT22;2434;48.486;7.964;2022-07-09T14:46:11;26.40;22.90
4840;DHT22;2434;48.486;7.964;2022-07-09T14:48:39;26.40;23.70
4840;DHT22;2434;48.486;7.964;2022-07-09T14:51:08;26.40;25.40
4840;DHT22;2434;48.486;7.964;2022-07-09T14:53:38;26.30;23.60
4840;DHT22;2434;48.486;7.964;2022-07-09T14:56:10;26.00;23.20
4840;DHT22;2434;48.486;7.964;2022-07-09T14:58:38;26.10;25.50
4840;DHT22;2434;48.486;7.964;2022-07-09T15:01:07;26.20;23.10
4840;DHT22;2434;48.486;7.964;2022-07-09T15:03:36;26.60;23.40
4840;DHT22;2434;48.486;7.964;2022-07-09T15:06:05;26.40;22.00
4840;DHT22;2434;48.486;7.964;2022-07-09T15:08:33;26.50;22.10
4840;DHT22;2434;48.486;7.964;2022-07-09T15:11:03;26.20;21.50
4840;DHT22;2434;48.486;7.964;2022-07-09T15:13:32;26.40;24.50
4840;DHT22;2434;48.486;7.964;2022-07-09T15:16:00;26.40;21.20
4840;DHT22;2434;48.486;7.964;2022-07-09T15:18:29;26.40;23.10
4840;DHT22;2434;48.486;7.964;2022-07-09T15:20:57;26.50;21.70
4840;DHT22;2434;48.486;7.964;2022-07-09T15:23:25;26.30;22.20
4840;DHT22;2434;48.486;7.964;2022-07-09T15:25:54;26.40;22.20
4840;DHT22;2434;48.486;7.964;2022-07-09T15:28:23;26.50;23.90
4840;DHT22;2434;48.486;7.964;2022-07-09T15:30:52;26.30;23.20
4840;DHT22;2434;48.486;7.964;2022-07-09T15:33:20;26.10;24.40
4840;DHT22;2434;48.486;7.964;2022-07-09T15:35:48;26.10;24.10
4840;DHT22;2434;48.486;7.964;2022-07-09T15:38:17;26.20;26.10
4840;DHT22;2434;48.486;7.964;2022-07-09T15:40:45;26.20;23.20
4840;DHT22;2434;48.486;7.964;2022-07-09T15:43:13;26.20;23.10
4840;DHT22;2434;48.486;7.964;2022-07-09T15:45:43;26.10;23.50
4840;DHT22;2434;48.486;7.964;2022-07-09T15:48:12;26.10;23.90
4840;DHT22;2434;48.486;7.964;2022-07-09T15:50:40;26.00;23.10
4840;DHT22;2434;48.486;7.964;2022-07-09T15:53:09;26.10;23.50
4840;DHT22;2434;48.486;7.964;2022-07-09T15:55:37;26.10;24.20
4840;DHT22;2434;48.486;7.964;2022-07-09T15:58:05;26.10;24.80
4840;DHT22;2434;48.486;7.964;2022-07-09T16:00:33;26.20;25.00
4840;DHT22;2434;48.486;7.964;2022-07-09T16:03:04;26.30;23.50
4840;DHT22;2434;48.486;7.964;2022-07-09T16:05:33;26.30;23.60
4840;DHT22;2434;48.486;7.964;2022-07-09T16:08:01;26.40;24.00
4840;DHT22;2434;48.486;7.964;2022-07-09T16:10:30;26.60;22.90
4840;DHT22;2434;48.486;7.964;2022-07-09T16:12:58;26.60;22.40
4840;DHT22;2434;48.486;7.964;2022-07-09T16:15:27;26.40;22.30